createdAt,value
2022-12-11T00:00:55.545Z,3.70
2022-12-11T00:03:57.754Z,3.69
2022-12-11T00:06:59.993Z,3.63
2022-12-11T00:10:02.274Z,3.62
2022-12-11T00:13:04.768Z,3.62
2022-12-11T00:16:07.480Z,3.54
2022-12-11T00:19:09.728Z,3.52
2022-12-11T00:22:11.914Z,3.50
2022-12-11T00:25:14.122Z,3.47
2022-12-11T00:28:20.279Z,3.49
2022-12-11T00:31:23.625Z,3.37
2022-12-11T00:34:26.064Z,3.44
2022-12-11T00:37:28.567Z,3.32
2022-12-11T00:40:34.335Z,3.39
2022-12-11T00:43:36.779Z,3.27
2022-12-11T00:46:39.091Z,3.33
2022-12-11T00:49:46.481Z,3.18
2022-12-11T00:52:51.687Z,3.16
2022-12-11T00:55:53.916Z,3.15
2022-12-11T00:58:56.639Z,3.20
2022-12-11T01:01:58.841Z,3.19
2022-12-11T01:05:01.064Z,3.18
2022-12-11T01:08:04.304Z,3.09
2022-12-11T01:11:10.531Z,3.11
2022-12-11T01:14:13.212Z,3.04
2022-12-11T01:17:15.538Z,3.06
2022-12-11T01:20:18.759Z,3.06
2022-12-11T01:23:20.946Z,3.04
2022-12-11T01:26:23.651Z,2.99
2022-12-11T01:29:25.882Z,2.96
2022-12-11T01:32:28.704Z,2.92
2022-12-11T01:35:31.011Z,2.88
2022-12-11T01:38:33.256Z,2.87
2022-12-11T01:41:35.464Z,2.84
2022-12-11T01:44:37.693Z,2.81
2022-12-11T01:47:40.184Z,2.78
2022-12-11T01:50:49.135Z,2.68
2022-12-11T01:54:00.711Z,2.62
2022-12-11T01:57:08.579Z,2.54
2022-12-11T02:00:11.359Z,2.51
2022-12-11T02:03:16.515Z,2.45
2022-12-11T02:06:37.608Z,2.37
2022-12-11T02:09:42.912Z,2.27
2022-12-11T02:12:52.209Z,2.22
2022-12-11T02:16:14.690Z,2.14
2022-12-11T02:19:16.887Z,1.96
2022-12-11T02:23:00.330Z,1.98
2022-12-11T02:26:23.775Z,1.98
2022-12-11T02:29:50.971Z,1.96
2022-12-11T02:32:58.832Z,2.02
2022-12-11T02:36:03.203Z,1.99
2022-12-11T02:39:07.927Z,2.02
2022-12-11T02:42:13.030Z,1.99
2022-12-11T02:45:17.234Z,2.00
2022-12-11T02:48:22.219Z,2.03
2022-12-11T02:51:29.944Z,1.96
2022-12-11T02:54:38.111Z,1.98
2022-12-11T02:57:40.296Z,2.02
2022-12-11T03:00:44.017Z,1.92
2022-12-11T03:03:46.284Z,2.02
2022-12-11T03:06:52.663Z,1.95
2022-12-11T03:09:54.956Z,1.99
2022-12-11T03:12:58.907Z,1.99
2022-12-11T03:16:03.810Z,1.95
2022-12-11T03:19:13.076Z,2.00
2022-12-11T03:22:21.042Z,2.06
2022-12-11T03:25:28.350Z,2.09
2022-12-11T03:28:36.563Z,2.05
2022-12-11T03:31:45.695Z,2.06
2022-12-11T03:34:58.218Z,2.03
2022-12-11T03:38:04.211Z,2.13
2022-12-11T03:41:07.885Z,2.12
2022-12-11T03:44:12.397Z,2.09
2022-12-11T03:47:19.073Z,2.16
2022-12-11T03:50:24.204Z,2.13
2022-12-11T03:53:27.483Z,2.07
2022-12-11T03:56:33.084Z,2.16
2022-12-11T03:59:35.554Z,2.16
2022-12-11T04:02:37.856Z,2.10
2022-12-11T04:05:48.303Z,2.19
2022-12-11T04:08:50.595Z,2.19
2022-12-11T04:11:52.827Z,2.22
2022-12-11T04:15:04.350Z,2.14
2022-12-11T04:18:26.311Z,2.07
2022-12-11T04:21:46.748Z,2.16
2022-12-11T04:24:50.265Z,2.17
2022-12-11T04:27:53.087Z,2.19
2022-12-11T04:30:55.295Z,2.17
2022-12-11T04:33:58.129Z,2.17
2022-12-11T04:37:00.356Z,2.13
2022-12-11T04:40:04.067Z,2.17
2022-12-11T04:43:06.477Z,2.16
2022-12-11T04:46:14.312Z,2.20
2022-12-11T04:49:16.600Z,2.23
2022-12-11T04:52:19.017Z,2.22
2022-12-11T04:55:21.650Z,2.22
2022-12-11T04:58:25.306Z,2.26
2022-12-11T05:01:27.571Z,2.29
2022-12-11T05:04:34.919Z,2.33
2022-12-11T05:07:37.910Z,2.41
2022-12-11T05:10:48.571Z,2.38
2022-12-11T05:13:52.233Z,2.43
2022-12-11T05:16:54.481Z,2.38
2022-12-11T05:19:56.703Z,2.48
2022-12-11T05:22:58.965Z,2.53
2022-12-11T05:26:07.548Z,2.50
2022-12-11T05:29:09.997Z,2.60
2022-12-11T05:32:12.358Z,2.57
2022-12-11T05:35:14.703Z,2.60
2022-12-11T05:38:17.003Z,2.58
2022-12-11T05:41:22.278Z,2.65
2022-12-11T05:44:24.673Z,2.66
2022-12-11T05:47:26.921Z,2.62
2022-12-11T05:50:29.164Z,2.68
2022-12-11T05:53:31.871Z,2.68
2022-12-11T05:56:35.215Z,2.70
2022-12-11T05:59:37.423Z,2.71
2022-12-11T06:02:39.786Z,2.70
2022-12-11T06:05:43.475Z,2.74
2022-12-11T06:08:52.466Z,2.74
2022-12-11T06:11:54.666Z,2.66
2022-12-11T06:14:57.030Z,2.66
2022-12-11T06:17:59.270Z,2.74
2022-12-11T06:21:01.477Z,2.75
2022-12-11T06:24:04.302Z,2.84
2022-12-11T06:27:06.527Z,2.81
2022-12-11T06:30:09.287Z,2.82
2022-12-11T06:33:11.557Z,2.89
2022-12-11T06:36:17.012Z,2.92
2022-12-11T06:39:19.271Z,3.01
2022-12-11T06:42:21.475Z,2.92
2022-12-11T06:45:23.757Z,2.95
2022-12-11T06:48:26.108Z,2.96
2022-12-11T06:51:28.345Z,3.04
2022-12-11T06:54:30.704Z,3.09
2022-12-11T06:57:33.504Z,3.15
2022-12-11T07:00:37.660Z,3.13
2022-12-11T07:03:39.943Z,3.23
2022-12-11T07:06:42.225Z,3.22
2022-12-11T07:09:44.442Z,3.20
2022-12-11T07:12:46.712Z,3.23
2022-12-11T07:15:48.996Z,3.16
2022-12-11T07:18:51.645Z,3.18
2022-12-11T07:21:53.846Z,3.20
2022-12-11T07:24:56.042Z,3.30
2022-12-11T07:27:58.264Z,3.27
2022-12-11T07:31:04.734Z,3.27
2022-12-11T07:34:07.369Z,3.36
2022-12-11T07:37:09.696Z,3.36
2022-12-11T07:40:12.129Z,3.43
2022-12-11T07:43:14.411Z,3.42
2022-12-11T07:46:20.580Z,3.44
2022-12-11T07:49:22.911Z,3.42
2022-12-11T07:52:25.163Z,3.42
2022-12-11T07:55:27.456Z,3.46
2022-12-11T07:58:29.705Z,3.47
2022-12-11T08:01:35.629Z,3.49
2022-12-11T08:04:38.477Z,3.50
2022-12-11T08:07:40.736Z,3.53
2022-12-11T08:10:43.182Z,3.60
2022-12-11T08:13:45.471Z,3.64
2022-12-11T08:16:48.215Z,3.59
2022-12-11T08:19:50.483Z,3.57
2022-12-11T08:22:57.552Z,3.56
2022-12-11T08:26:05.737Z,3.60
2022-12-11T08:29:08.121Z,3.63
2022-12-11T08:32:12.627Z,3.64
2022-12-11T08:35:15.568Z,3.64
2022-12-11T08:38:23.698Z,3.67
2022-12-11T08:41:30.111Z,3.67
2022-12-11T08:44:32.771Z,3.70
2022-12-11T08:47:34.969Z,3.74
2022-12-11T08:50:43.736Z,3.70
2022-12-11T08:53:46.001Z,3.70
2022-12-11T08:56:48.247Z,3.69
2022-12-11T08:59:50.470Z,3.73
2022-12-11T09:02:52.841Z,3.70
2022-12-11T09:05:55.142Z,3.69
2022-12-11T09:09:00.156Z,3.78
2022-12-11T09:12:04.675Z,3.69
2022-12-11T09:15:07.382Z,3.71
2022-12-11T09:18:09.663Z,3.66
2022-12-11T09:21:13.914Z,3.64
2022-12-11T09:24:16.215Z,3.77
2022-12-11T09:27:21.231Z,3.80
2022-12-11T09:30:23.542Z,3.73
2022-12-11T09:33:26.050Z,3.76
2022-12-11T09:36:29.049Z,3.70
2022-12-11T09:39:31.306Z,3.77
2022-12-11T09:42:39.194Z,3.73
2022-12-11T09:45:41.466Z,3.69
2022-12-11T09:48:49.191Z,3.69
2022-12-11T09:52:07.260Z,3.77
2022-12-11T09:55:19.830Z,3.81
2022-12-11T09:59:03.975Z,3.83
2022-12-11T10:02:47.075Z,3.77
2022-12-11T10:06:07.987Z,3.78
2022-12-11T10:09:31.555Z,3.74
2022-12-11T10:12:51.032Z,3.91
2022-12-11T10:16:05.962Z,3.91
2022-12-11T10:19:29.073Z,4.01
2022-12-11T10:22:33.179Z,4.04
2022-12-11T10:25:48.305Z,4.04
2022-12-11T10:28:51.018Z,4.08
2022-12-11T10:31:57.956Z,4.02
2022-12-11T10:35:05.550Z,3.99
2022-12-11T10:38:19.936Z,4.04
2022-12-11T10:41:24.844Z,4.08
2022-12-11T10:44:29.398Z,4.08
2022-12-11T10:47:34.039Z,3.97
2022-12-11T10:50:36.459Z,4.12
2022-12-11T10:53:40.538Z,4.04
2022-12-11T10:56:46.771Z,3.93
2022-12-11T10:59:50.327Z,3.93
2022-12-11T11:02:52.701Z,3.77
2022-12-11T11:06:17.596Z,3.83
2022-12-11T11:09:36.207Z,4.01
2022-12-11T11:12:42.540Z,3.98
2022-12-11T11:15:45.363Z,3.94
2022-12-11T11:18:54.149Z,3.91
2022-12-11T11:22:12.783Z,3.93
2022-12-11T11:25:24.276Z,3.93
2022-12-11T11:28:37.557Z,3.90
2022-12-11T11:31:39.933Z,3.98
2022-12-11T11:34:42.240Z,3.95
2022-12-11T11:37:59.745Z,3.93
2022-12-11T11:41:11.552Z,3.94
2022-12-11T11:44:41.726Z,3.91
2022-12-11T11:48:13.548Z,3.94
2022-12-11T11:51:32.182Z,3.95
2022-12-11T11:54:45.995Z,3.87
2022-12-11T11:57:56.664Z,3.85
2022-12-11T12:00:58.889Z,3.93
2022-12-11T12:04:04.003Z,3.95
2022-12-11T12:07:44.633Z,3.93
2022-12-11T12:11:05.521Z,3.98
2022-12-11T12:14:50.720Z,3.91
2022-12-11T12:17:58.384Z,3.80
2022-12-11T12:21:24.596Z,3.90
2022-12-11T12:24:47.220Z,3.97
2022-12-11T12:28:26.908Z,3.84
2022-12-11T12:31:47.280Z,3.94
2022-12-11T12:35:16.879Z,3.85
2022-12-11T12:38:36.408Z,3.84
2022-12-11T12:41:41.674Z,3.90
2022-12-11T12:44:59.572Z,3.77
2022-12-11T12:48:04.739Z,3.71
2022-12-11T12:51:07.735Z,3.70
2022-12-11T12:54:16.183Z,3.70
2022-12-11T12:57:18.712Z,3.71
2022-12-11T13:00:44.433Z,3.70
2022-12-11T13:03:49.852Z,3.76
2022-12-11T13:06:52.586Z,3.73
2022-12-11T13:10:08.516Z,3.63
2022-12-11T13:13:35.623Z,3.66
2022-12-11T13:16:43.067Z,3.67
2022-12-11T13:19:45.601Z,3.64
2022-12-11T13:22:49.228Z,3.60
2022-12-11T13:25:54.762Z,3.64
2022-12-11T13:28:58.276Z,3.60
2022-12-11T13:32:30.016Z,3.50
2022-12-11T13:35:33.734Z,3.60
2022-12-11T13:38:37.112Z,3.53
2022-12-11T13:41:40.268Z,3.50
2022-12-11T13:44:43.183Z,3.52
2022-12-11T13:47:46.476Z,3.57
2022-12-11T13:50:50.917Z,3.52
2022-12-11T13:54:21.303Z,3.50
2022-12-11T13:57:26.795Z,3.44
2022-12-11T14:00:32.638Z,3.46
2022-12-11T14:03:35.771Z,3.46
2022-12-11T14:06:39.857Z,3.49
2022-12-11T14:09:46.095Z,3.36
2022-12-11T14:13:00.492Z,3.44
2022-12-11T14:16:03.261Z,3.36
2022-12-11T14:19:07.307Z,3.40
2022-12-11T14:22:18.961Z,3.39
2022-12-11T14:25:26.735Z,3.43
2022-12-11T14:28:35.791Z,3.40
2022-12-11T14:31:42.371Z,3.36
2022-12-11T14:34:47.198Z,3.33
2022-12-11T14:37:49.946Z,3.37
2022-12-11T14:40:58.312Z,3.26
2022-12-11T14:44:04.507Z,3.19
2022-12-11T14:47:15.764Z,3.27
2022-12-11T14:50:22.809Z,3.26
2022-12-11T14:53:33.030Z,3.23
2022-12-11T14:56:35.407Z,3.18
2022-12-11T14:59:45.787Z,3.26
2022-12-11T15:03:01.504Z,3.25
2022-12-11T15:06:22.743Z,3.20
2022-12-11T15:09:26.904Z,3.19
2022-12-11T15:12:29.179Z,3.13
2022-12-11T15:15:37.675Z,3.18
2022-12-11T15:18:42.637Z,3.09
2022-12-11T15:21:44.879Z,3.19
2022-12-11T15:24:52.685Z,3.13
2022-12-11T15:27:58.007Z,3.16
2022-12-11T15:31:03.886Z,3.11
2022-12-11T15:34:22.339Z,3.11
2022-12-11T15:37:36.546Z,3.02
2022-12-11T15:40:41.428Z,3.11
2022-12-11T15:43:44.841Z,3.09
2022-12-11T15:46:47.139Z,3.13
2022-12-11T15:49:49.737Z,3.11
2022-12-11T15:52:53.674Z,3.12
2022-12-11T15:55:57.500Z,3.11
2022-12-11T15:59:04.623Z,3.06
2022-12-11T16:02:12.952Z,3.09
2022-12-11T16:05:15.394Z,3.06
2022-12-11T16:08:20.660Z,3.02
2022-12-11T16:11:22.921Z,2.96
2022-12-11T16:14:25.152Z,2.98
2022-12-11T16:17:27.454Z,2.88
2022-12-11T16:20:31.163Z,2.94
2022-12-11T16:23:33.405Z,2.91
2022-12-11T16:26:35.600Z,2.89
2022-12-11T16:29:40.444Z,2.92
2022-12-11T16:32:43.163Z,2.85
2022-12-11T16:35:45.456Z,2.85
2022-12-11T16:38:53.439Z,2.85
2022-12-11T16:41:56.518Z,2.87
2022-12-11T16:45:12.238Z,2.94
2022-12-11T16:48:14.633Z,2.88
2022-12-11T16:51:17.241Z,2.85
2022-12-11T16:54:19.469Z,2.81
2022-12-11T16:57:25.636Z,2.84
2022-12-11T17:00:27.866Z,2.80
2022-12-11T17:03:31.691Z,2.80
2022-12-11T17:06:34.023Z,2.72
2022-12-11T17:09:36.491Z,2.68
2022-12-11T17:12:39.084Z,2.72
2022-12-11T17:15:42.613Z,2.68
2022-12-11T17:18:44.907Z,2.71
2022-12-11T17:21:51.599Z,2.75
2022-12-11T17:24:54.155Z,2.71
2022-12-11T17:27:56.554Z,2.75
2022-12-11T17:30:58.921Z,2.66
2022-12-11T17:34:01.216Z,2.62
2022-12-11T17:37:03.796Z,2.66
2022-12-11T17:40:06.701Z,2.62
2022-12-11T17:43:09.925Z,2.53
2022-12-11T17:46:12.815Z,2.51
2022-12-11T17:49:15.178Z,2.40
2022-12-11T17:52:17.398Z,2.47
2022-12-11T17:55:19.613Z,2.47
2022-12-11T17:58:23.319Z,2.44
2022-12-11T18:01:25.616Z,2.33
2022-12-11T18:04:27.909Z,2.29
2022-12-11T18:07:30.087Z,2.29
2022-12-11T18:10:32.912Z,2.37
2022-12-11T18:13:35.650Z,2.31
2022-12-11T18:16:38.201Z,2.37
2022-12-11T18:19:45.859Z,2.26
2022-12-11T18:22:48.611Z,2.26
2022-12-11T18:25:50.812Z,2.22
2022-12-11T18:28:53.710Z,2.22
2022-12-11T18:31:56.022Z,2.12
2022-12-11T18:34:58.315Z,2.07
2022-12-11T18:38:00.554Z,2.06
2022-12-11T18:41:04.740Z,2.09
2022-12-11T18:44:09.988Z,2.06
2022-12-11T18:47:12.499Z,2.05
2022-12-11T18:50:14.738Z,2.00
2022-12-11T18:53:18.196Z,1.93
2022-12-11T18:56:21.839Z,1.96
2022-12-11T18:59:25.516Z,1.95
2022-12-11T19:02:27.785Z,2.05
2022-12-11T19:05:30.235Z,2.13
2022-12-11T19:08:33.570Z,2.13
2022-12-11T19:11:38.667Z,1.99
2022-12-11T19:14:40.944Z,1.89
2022-12-11T19:17:43.368Z,1.93
2022-12-11T19:20:49.986Z,2.02
2022-12-11T19:23:54.875Z,1.96
2022-12-11T19:26:57.259Z,1.93
2022-12-11T19:30:00.199Z,1.95
2022-12-11T19:33:09.695Z,1.89
2022-12-11T19:36:14.529Z,1.89
2022-12-11T19:39:17.319Z,1.96
2022-12-11T19:42:19.570Z,1.92
2022-12-11T19:45:21.816Z,1.87
2022-12-11T19:48:24.019Z,1.92
2022-12-11T19:51:37.035Z,1.83
2022-12-11T19:54:39.260Z,1.82
2022-12-11T19:57:41.589Z,1.87
2022-12-11T20:00:44.147Z,1.87
2022-12-11T20:03:46.365Z,1.81
2022-12-11T20:06:48.656Z,1.82
2022-12-11T20:09:50.903Z,1.81
2022-12-11T20:12:56.607Z,1.73
2022-12-11T20:15:59.698Z,1.76
2022-12-11T20:19:01.996Z,1.76
2022-12-11T20:22:04.314Z,1.75
2022-12-11T20:25:07.461Z,1.79
2022-12-11T20:28:09.930Z,1.71
2022-12-11T20:31:20.159Z,1.69
2022-12-11T20:34:22.840Z,1.73
2022-12-11T20:37:26.031Z,1.78
2022-12-11T20:40:28.367Z,1.85
2022-12-11T20:43:32.054Z,1.78
2022-12-11T20:46:35.407Z,1.72
2022-12-11T20:49:37.662Z,1.78
2022-12-11T20:52:39.884Z,1.78
2022-12-11T20:55:43.054Z,1.71
2022-12-11T20:58:46.325Z,1.69
2022-12-11T21:01:49.536Z,1.76
2022-12-11T21:04:51.799Z,1.73
2022-12-11T21:07:54.967Z,1.62
2022-12-11T21:10:57.282Z,1.65
2022-12-11T21:14:00.005Z,1.62
2022-12-11T21:17:02.220Z,1.61
2022-12-11T21:20:04.895Z,1.56
2022-12-11T21:23:07.087Z,1.56
2022-12-11T21:26:09.917Z,1.55
2022-12-11T21:29:12.618Z,1.51
2022-12-11T21:32:16.423Z,1.41
2022-12-11T21:35:18.648Z,1.28
2022-12-11T21:38:20.868Z,1.13
2022-12-11T21:41:24.332Z,1.17
2022-12-11T21:47:49.477Z,1.13
2022-12-11T21:50:51.785Z,1.07
2022-12-11T21:53:54.248Z,1.07
2022-12-11T21:56:56.885Z,0.96
2022-12-11T21:59:59.335Z,0.93
2022-12-11T22:03:01.590Z,0.87
2022-12-11T22:06:03.935Z,0.79
2022-12-11T22:09:06.227Z,0.72
2022-12-11T22:12:09.836Z,0.70
2022-12-11T22:15:12.260Z,0.66
2022-12-11T22:18:14.959Z,0.62
2022-12-11T22:21:17.507Z,0.58
2022-12-11T22:24:19.767Z,0.49
2022-12-11T22:27:23.847Z,0.58
2022-12-11T22:30:26.514Z,0.49
2022-12-11T22:33:28.752Z,0.42
2022-12-11T22:36:31.069Z,0.25
2022-12-11T22:39:33.263Z,0.29
2022-12-11T22:42:35.560Z,0.29
2022-12-11T22:45:41.915Z,0.29
2022-12-11T22:48:44.257Z,0.32
2022-12-11T22:51:46.490Z,0.39
2022-12-11T22:54:48.709Z,0.33
2022-12-11T22:57:50.949Z,0.29
2022-12-11T23:00:54.116Z,0.32
2022-12-11T23:03:56.380Z,0.28
2022-12-11T23:06:58.937Z,0.18
2022-12-11T23:10:01.293Z,0.18
2022-12-11T23:13:03.534Z,0.15
2022-12-11T23:16:06.101Z,0.15
2022-12-11T23:19:08.508Z,0.29
2022-12-11T23:22:10.909Z,0.22
2022-12-11T23:25:14.403Z,0.21
2022-12-11T23:28:16.779Z,0.11
2022-12-11T23:31:19.073Z,0.05
2022-12-11T23:34:21.353Z,0.04
2022-12-11T23:37:23.546Z,0.08
2022-12-11T23:40:26.023Z,0.14
2022-12-11T23:43:28.641Z,0.14
2022-12-11T23:46:31.726Z,0.12
2022-12-11T23:49:34.091Z,0.14
2022-12-11T23:52:36.336Z,0.08
2022-12-11T23:55:41.263Z,0.09
2022-12-11T23:58:43.655Z,0.14
